Naval Submarine Base, Connecticut
Current Conditions -  °F | °C
As of 10:56 AM on Wednesday 22 Oct 2014 (Local Time) from KGON Reporting Station
Overcast Overcast  
Wind Chill: 57°   Ceiling: 1600
Heat Index: 57°   Visibility: 10mi
Dew Point: 53°   Wind: 16mph
Humidity: 87%   Direction: 30°NNE
Pressure: 29.92"   Gusts: 20mph
Location:  41.3499°N, 72.0759°W
Report Text: KGON 221456Z 03014G17KT 10SM OVC016 14/12 A2992 RMK AO2 SLP130 T01390117 58002
Loading
Personal Weather Stations






























Interactive Weather Map
Tropical Storm Tracking
New forecast layout! Learn more

10-Day Weather Forecast

Advertisements
Track Severe Weather on mobile